Terminal Aerodrome Forecast
Issued by NWS

Home | Current Version | Previous Version | Text Only | Print | Product List | Glossary Off
Versions: 1 2 3 4 5 6 7 8 9 10 11 12 13 14

000
FTUS43 KMPX 272337
TAFRNH
TAF
KRNH 272337Z 2800/2824 14009KT P6SM BKN050
     FM280300 14005KT P6SM SCT035
     FM281000 15011KT 5SM BR VCSH BKN035
      TEMPO 2812/2815 2SM -TSRA BR OVC020CB
     FM281500 16014G21KT P6SM -SHRA SCT015 OVC025
     FM281800 17017G25KT P6SM VCSH OVC035=

USA.gov is the U.S. government's official web portal to all federal, state and local government web resources and services.